sensor_id;sensor_type;location;lat;lon;timestamp;pressure;altitude;pressure_sealevel;temperature;humidity
68179;BME280;54998;42.656;23.382;2022-12-20T00:00:42;96712.56;;;-2.29;67.79
68179;BME280;54998;42.656;23.382;2022-12-20T00:03:07;96713.41;;;-2.29;67.58
68179;BME280;54998;42.656;23.382;2022-12-20T00:05:37;96710.06;;;-2.32;67.68
68179;BME280;54998;42.656;23.382;2022-12-20T00:08:03;96710.13;;;-2.35;67.71
68179;BME280;54998;42.656;23.382;2022-12-20T00:10:29;96715.91;;;-2.29;67.43
68179;BME280;54998;42.656;23.382;2022-12-20T00:12:54;96716.00;;;-2.38;67.65
68179;BME280;54998;42.656;23.382;2022-12-20T00:15:20;96723.50;;;-2.32;67.43
68179;BME280;54998;42.656;23.382;2022-12-20T00:17:45;96714.31;;;-2.37;67.69
68179;BME280;54998;42.656;23.382;2022-12-20T00:20:11;96724.38;;;-2.36;67.50
68179;BME280;54998;42.656;23.382;2022-12-20T00:22:36;96734.44;;;-2.36;67.24
68179;BME280;54998;42.656;23.382;2022-12-20T00:25:02;96721.97;;;-2.45;67.46
68179;BME280;54998;42.656;23.382;2022-12-20T00:27:28;96727.88;;;-2.49;67.84
68179;BME280;54998;42.656;23.382;2022-12-20T00:29:53;96731.16;;;-2.45;67.83
68179;BME280;54998;42.656;23.382;2022-12-20T00:32:19;96729.63;;;-2.59;68.02
68179;BME280;54998;42.656;23.382;2022-12-20T00:34:44;96730.44;;;-2.55;67.98
68179;BME280;54998;42.656;23.382;2022-12-20T00:37:10;96723.66;;;-2.49;67.87
68179;BME280;54998;42.656;23.382;2022-12-20T00:39:35;96716.94;;;-2.48;67.67
68179;BME280;54998;42.656;23.382;2022-12-20T00:42:01;96722.91;;;-2.55;67.78
68179;BME280;54998;42.656;23.382;2022-12-20T00:44:26;96724.56;;;-2.54;67.85
68179;BME280;54998;42.656;23.382;2022-12-20T00:46:52;96716.22;;;-2.58;67.67
68179;BME280;54998;42.656;23.382;2022-12-20T00:49:18;96717.06;;;-2.57;67.39
68179;BME280;54998;42.656;23.382;2022-12-20T00:51:43;96719.53;;;-2.54;66.92
68179;BME280;54998;42.656;23.382;2022-12-20T00:54:08;96719.56;;;-2.60;67.46
68179;BME280;54998;42.656;23.382;2022-12-20T00:56:34;96715.34;;;-2.55;67.16
68179;BME280;54998;42.656;23.382;2022-12-20T00:58:59;96723.78;;;-2.61;67.77
68179;BME280;54998;42.656;23.382;2022-12-20T01:01:29;96724.59;;;-2.56;67.49
68179;BME280;54998;42.656;23.382;2022-12-20T01:03:55;96723.81;;;-2.65;67.99
68179;BME280;54998;42.656;23.382;2022-12-20T01:06:21;96730.44;;;-2.57;67.58
68179;BME280;54998;42.656;23.382;2022-12-20T01:08:47;96719.63;;;-2.65;67.92
68179;BME280;54998;42.656;23.382;2022-12-20T01:11:18;96726.31;;;-2.62;67.62
68179;BME280;54998;42.656;23.382;2022-12-20T01:13:46;96720.47;;;-2.66;68.05
68179;BME280;54998;42.656;23.382;2022-12-20T01:16:33;96722.19;;;-2.66;67.69
68179;BME280;54998;42.656;23.382;2022-12-20T01:19:00;96717.97;;;-2.69;67.76
68179;BME280;54998;42.656;23.382;2022-12-20T01:21:26;96715.50;;;-2.72;67.56
68179;BME280;54998;42.656;23.382;2022-12-20T01:23:52;96709.63;;;-2.71;67.41
68179;BME280;54998;42.656;23.382;2022-12-20T01:26:19;96705.47;;;-2.74;67.82
68179;BME280;54998;42.656;23.382;2022-12-20T01:28:47;96702.16;;;-2.79;68.17
68179;BME280;54998;42.656;23.382;2022-12-20T01:31:15;96698.84;;;-2.79;67.99
68179;BME280;54998;42.656;23.382;2022-12-20T01:33:42;96698.88;;;-2.84;68.11
68179;BME280;54998;42.656;23.382;2022-12-20T01:36:11;96692.16;;;-2.85;68.40
68179;BME280;54998;42.656;23.382;2022-12-20T01:38:36;96694.69;;;-2.83;68.17
68179;BME280;54998;42.656;23.382;2022-12-20T01:41:02;96701.41;;;-2.85;68.04
68179;BME280;54998;42.656;23.382;2022-12-20T01:46:41;96692.22;;;-2.90;68.08
68179;BME280;54998;42.656;23.382;2022-12-20T01:51:46;96687.28;;;-3.00;68.43
68179;BME280;54998;42.656;23.382;2022-12-20T01:54:17;96680.63;;;-3.03;68.16
68179;BME280;54998;42.656;23.382;2022-12-20T01:56:49;96680.56;;;-3.00;68.27
68179;BME280;54998;42.656;23.382;2022-12-20T01:59:16;96672.25;;;-3.06;68.09
68179;BME280;54998;42.656;23.382;2022-12-20T02:01:42;96668.13;;;-3.12;68.19
68179;BME280;54998;42.656;23.382;2022-12-20T02:04:09;96664.81;;;-3.17;68.16
68179;BME280;54998;42.656;23.382;2022-12-20T02:06:36;96664.78;;;-3.11;67.55
68179;BME280;54998;42.656;23.382;2022-12-20T02:09:03;96658.06;;;-3.11;67.44
68179;BME280;54998;42.656;23.382;2022-12-20T02:28:31;96658.16;;;-3.21;67.88
68179;BME280;54998;42.656;23.382;2022-12-20T02:31:10;96657.38;;;-3.25;68.05
68179;BME280;54998;42.656;23.382;2022-12-20T02:33:38;96647.38;;;-3.31;67.92
68179;BME280;54998;42.656;23.382;2022-12-20T02:36:06;96662.38;;;-3.28;67.85
68179;BME280;54998;42.656;23.382;2022-12-20T02:38:34;96652.38;;;-3.31;67.96
68179;BME280;54998;42.656;23.382;2022-12-20T02:43:45;96655.69;;;-3.26;67.61
68179;BME280;54998;42.656;23.382;2022-12-20T02:46:30;96649.06;;;-3.33;68.00
68179;BME280;54998;42.656;23.382;2022-12-20T02:49:00;96651.50;;;-3.27;67.75
68179;BME280;54998;42.656;23.382;2022-12-20T02:51:27;96656.53;;;-3.30;68.11
68179;BME280;54998;42.656;23.382;2022-12-20T02:53:55;96658.22;;;-3.31;67.64
68179;BME280;54998;42.656;23.382;2022-12-20T02:56:28;96639.84;;;-3.34;68.68
68179;BME280;54998;42.656;23.382;2022-12-20T03:01:37;96645.72;;;-3.35;69.48
68179;BME280;54998;42.656;23.382;2022-12-20T03:04:03;96656.66;;;-3.42;69.99
68179;BME280;54998;42.656;23.382;2022-12-20T03:06:29;96648.28;;;-3.41;70.19
68179;BME280;54998;42.656;23.382;2022-12-20T03:08:55;96641.59;;;-3.44;70.43
68179;BME280;54998;42.656;23.382;2022-12-20T03:11:21;96650.81;;;-3.44;70.35
68179;BME280;54998;42.656;23.382;2022-12-20T03:13:47;96638.31;;;-3.52;70.49
68179;BME280;54998;42.656;23.382;2022-12-20T03:16:12;96633.31;;;-3.55;70.78
68179;BME280;54998;42.656;23.382;2022-12-20T03:18:38;96640.84;;;-3.55;70.87
68179;BME280;54998;42.656;23.382;2022-12-20T03:21:03;96634.19;;;-3.61;70.99
68179;BME280;54998;42.656;23.382;2022-12-20T03:23:29;96630.88;;;-3.66;71.49
68179;BME280;54998;42.656;23.382;2022-12-20T03:25:54;96632.53;;;-3.63;71.50
68179;BME280;54998;42.656;23.382;2022-12-20T03:28:20;96638.41;;;-3.66;71.63
68179;BME280;54998;42.656;23.382;2022-12-20T03:30:46;96641.75;;;-3.67;71.52
68179;BME280;54998;42.656;23.382;2022-12-20T03:33:11;96635.13;;;-3.74;71.45
68179;BME280;54998;42.656;23.382;2022-12-20T03:35:36;96635.16;;;-3.77;71.39
68179;BME280;54998;42.656;23.382;2022-12-20T03:38:02;96634.25;;;-3.72;71.40
68179;BME280;54998;42.656;23.382;2022-12-20T03:40:27;96631.78;;;-3.78;71.60
68179;BME280;54998;42.656;23.382;2022-12-20T03:42:53;96628.47;;;-3.78;71.41
68179;BME280;54998;42.656;23.382;2022-12-20T03:45:18;96637.66;;;-3.80;71.41
68179;BME280;54998;42.656;23.382;2022-12-20T03:47:43;96636.03;;;-3.87;71.59
68179;BME280;54998;42.656;23.382;2022-12-20T03:50:09;96636.03;;;-3.89;71.70
68179;BME280;54998;42.656;23.382;2022-12-20T03:52:35;96620.19;;;-3.94;72.14
68179;BME280;54998;42.656;23.382;2022-12-20T03:55:01;96627.69;;;-3.89;71.93
68179;BME280;54998;42.656;23.382;2022-12-20T03:57:27;96615.16;;;-3.88;71.90
68179;BME280;54998;42.656;23.382;2022-12-20T03:59:53;96619.38;;;-3.95;72.23
68179;BME280;54998;42.656;23.382;2022-12-20T04:02:19;96621.06;;;-4.00;72.51
68179;BME280;54998;42.656;23.382;2022-12-20T04:04:45;96620.22;;;-4.02;72.38
68179;BME280;54998;42.656;23.382;2022-12-20T04:07:11;96623.63;;;-4.09;72.50
68179;BME280;54998;42.656;23.382;2022-12-20T04:09:36;96623.63;;;-4.10;72.77
68179;BME280;54998;42.656;23.382;2022-12-20T04:12:02;96611.16;;;-4.18;72.90
68179;BME280;54998;42.656;23.382;2022-12-20T04:14:27;96617.81;;;-4.14;72.77
68179;BME280;54998;42.656;23.382;2022-12-20T04:16:53;96616.09;;;-4.10;72.92
68179;BME280;54998;42.656;23.382;2022-12-20T04:19:18;96615.31;;;-4.14;73.11
68179;BME280;54998;42.656;23.382;2022-12-20T04:21:44;96612.81;;;-4.22;73.22
68179;BME280;54998;42.656;23.382;2022-12-20T04:24:10;96609.47;;;-4.19;73.42
68179;BME280;54998;42.656;23.382;2022-12-20T04:26:35;96606.97;;;-4.21;73.51
68179;BME280;54998;42.656;23.382;2022-12-20T04:29:01;96611.16;;;-4.27;73.75
68179;BME280;54998;42.656;23.382;2022-12-20T04:31:26;96607.00;;;-4.28;73.73
68179;BME280;54998;42.656;23.382;2022-12-20T04:33:51;96607.00;;;-4.30;73.89
68179;BME280;54998;42.656;23.382;2022-12-20T04:36:17;96609.56;;;-4.31;73.89
68179;BME280;54998;42.656;23.382;2022-12-20T04:38:43;96611.22;;;-4.34;73.80
68179;BME280;54998;42.656;23.382;2022-12-20T04:41:08;96602.00;;;-4.30;73.86
68179;BME280;54998;42.656;23.382;2022-12-20T04:43:34;96606.22;;;-4.34;73.59
68179;BME280;54998;42.656;23.382;2022-12-20T04:45:59;96604.53;;;-4.33;73.53
68179;BME280;54998;42.656;23.382;2022-12-20T04:48:26;96604.53;;;-4.33;73.58
68179;BME280;54998;42.656;23.382;2022-12-20T04:50:52;96605.41;;;-4.42;73.51
68179;BME280;54998;42.656;23.382;2022-12-20T04:53:18;96601.28;;;-4.52;73.75
68179;BME280;54998;42.656;23.382;2022-12-20T04:56:02;96607.13;;;-4.53;73.90
68179;BME280;54998;42.656;23.382;2022-12-20T04:58:28;96604.63;;;-4.62;74.23
68179;BME280;54998;42.656;23.382;2022-12-20T05:00:53;96599.63;;;-4.59;74.34
68179;BME280;54998;42.656;23.382;2022-12-20T05:03:20;96602.97;;;-4.60;74.26
68179;BME280;54998;42.656;23.382;2022-12-20T05:05:46;96603.75;;;-4.46;73.88
68179;BME280;54998;42.656;23.382;2022-12-20T05:08:12;96602.13;;;-4.58;74.13
68179;BME280;54998;42.656;23.382;2022-12-20T05:10:37;96600.44;;;-4.52;74.01
68179;BME280;54998;42.656;23.382;2022-12-20T05:13:03;96597.13;;;-4.59;73.97
68179;BME280;54998;42.656;23.382;2022-12-20T05:15:28;96599.63;;;-4.56;74.02
68179;BME280;54998;42.656;23.382;2022-12-20T05:17:54;96601.28;;;-4.58;74.36
68179;BME280;54998;42.656;23.382;2022-12-20T05:20:28;96602.94;;;-4.56;74.29
68179;BME280;54998;42.656;23.382;2022-12-20T05:22:54;96602.13;;;-4.62;74.39
68179;BME280;54998;42.656;23.382;2022-12-20T05:25:48;96592.13;;;-4.62;74.40
68179;BME280;54998;42.656;23.382;2022-12-20T05:28:33;96596.31;;;-4.61;74.23
68179;BME280;54998;42.656;23.382;2022-12-20T05:30:59;96598.84;;;-4.66;74.33
68179;BME280;54998;42.656;23.382;2022-12-20T05:33:25;96601.31;;;-4.63;74.12
68179;BME280;54998;42.656;23.382;2022-12-20T05:35:50;96597.16;;;-4.65;74.48
68179;BME280;54998;42.656;23.382;2022-12-20T05:38:16;96604.63;;;-4.58;74.23
68179;BME280;54998;42.656;23.382;2022-12-20T05:40:41;96599.63;;;-4.61;74.22
68179;BME280;54998;42.656;23.382;2022-12-20T05:43:06;96602.97;;;-4.66;74.41
68179;BME280;54998;42.656;23.382;2022-12-20T05:45:32;96613.00;;;-4.63;74.72
68179;BME280;54998;42.656;23.382;2022-12-20T05:47:58;96606.41;;;-4.81;74.59
68179;BME280;54998;42.656;23.382;2022-12-20T05:50:24;96609.69;;;-4.65;74.22
68179;BME280;54998;42.656;23.382;2022-12-20T05:52:49;96617.16;;;-4.56;73.94
68179;BME280;54998;42.656;23.382;2022-12-20T05:55:15;96618.00;;;-4.60;73.89
68179;BME280;54998;42.656;23.382;2022-12-20T05:57:40;96612.13;;;-4.58;74.03
68179;BME280;54998;42.656;23.382;2022-12-20T06:00:06;96614.66;;;-4.55;74.08
68179;BME280;54998;42.656;23.382;2022-12-20T06:02:32;96617.97;;;-4.54;73.63
68179;BME280;54998;42.656;23.382;2022-12-20T06:04:58;96618.84;;;-4.55;73.79
68179;BME280;54998;42.656;23.382;2022-12-20T06:07:24;96612.97;;;-4.56;73.37
68179;BME280;54998;42.656;23.382;2022-12-20T06:09:50;96617.19;;;-4.59;73.28
68179;BME280;54998;42.656;23.382;2022-12-20T06:12:15;96615.50;;;-4.57;73.50
68179;BME280;54998;42.656;23.382;2022-12-20T06:14:41;96615.50;;;-4.59;73.41
68179;BME280;54998;42.656;23.382;2022-12-20T06:17:06;96617.16;;;-4.56;73.35
68179;BME280;54998;42.656;23.382;2022-12-20T06:19:32;96615.91;;;-3.78;72.36
68179;BME280;54998;42.656;23.382;2022-12-20T06:21:57;96613.50;;;-2.90;68.62
68179;BME280;54998;42.656;23.382;2022-12-20T06:24:23;96617.06;;;-2.34;65.89
68179;BME280;54998;42.656;23.382;2022-12-20T06:26:50;96622.84;;;-2.25;64.70
68179;BME280;54998;42.656;23.382;2022-12-20T06:29:16;96615.50;;;-2.45;64.88
68179;BME280;54998;42.656;23.382;2022-12-20T06:31:42;96610.69;;;-1.96;63.58
68179;BME280;54998;42.656;23.382;2022-12-20T06:34:08;96612.00;;;-1.17;61.02
68179;BME280;54998;42.656;23.382;2022-12-20T06:36:33;96608.97;;;-0.43;57.73
68179;BME280;54998;42.656;23.382;2022-12-20T06:38:59;96608.56;;;-0.23;56.96
68179;BME280;54998;42.656;23.382;2022-12-20T06:41:24;96601.69;;;0.23;55.15
68179;BME280;54998;42.656;23.382;2022-12-20T06:43:50;96605.81;;;0.27;54.25
68179;BME280;54998;42.656;23.382;2022-12-20T06:46:15;96596.75;;;0.54;53.89
68179;BME280;54998;42.656;23.382;2022-12-20T06:48:40;96598.03;;;0.72;53.17
68179;BME280;54998;42.656;23.382;2022-12-20T06:51:06;96594.75;;;1.01;52.46
68179;BME280;54998;42.656;23.382;2022-12-20T06:53:32;96588.88;;;1.00;51.70
68179;BME280;54998;42.656;23.382;2022-12-20T06:55:57;96596.91;;;0.82;52.56
68179;BME280;54998;42.656;23.382;2022-12-20T06:58:23;96599.47;;;1.46;50.97
68179;BME280;54998;42.656;23.382;2022-12-20T07:00:48;96588.91;;;0.99;51.30
68179;BME280;54998;42.656;23.382;2022-12-20T07:03:14;96583.22;;;1.84;49.87
68179;BME280;54998;42.656;23.382;2022-12-20T07:05:39;96585.78;;;1.22;50.55
68179;BME280;54998;42.656;23.382;2022-12-20T07:08:06;96582.91;;;1.34;50.57
68179;BME280;54998;42.656;23.382;2022-12-20T07:10:36;96581.97;;;1.70;49.23
68179;BME280;54998;42.656;23.382;2022-12-20T07:13:02;96576.75;;;1.44;49.32
68179;BME280;54998;42.656;23.382;2022-12-20T07:15:27;96576.75;;;1.13;50.95
68179;BME280;54998;42.656;23.382;2022-12-20T07:17:53;96574.50;;;1.65;49.36
68179;BME280;54998;42.656;23.382;2022-12-20T07:20:18;96569.16;;;2.04;48.01
68179;BME280;54998;42.656;23.382;2022-12-20T07:22:46;96573.53;;;2.25;47.67
68179;BME280;54998;42.656;23.382;2022-12-20T07:25:13;96566.56;;;3.11;45.67
68179;BME280;54998;42.656;23.382;2022-12-20T07:27:39;96563.50;;;3.73;43.53
68179;BME280;54998;42.656;23.382;2022-12-20T07:30:05;96568.22;;;2.60;45.22
68179;BME280;54998;42.656;23.382;2022-12-20T07:32:31;96569.34;;;3.03;45.17
68179;BME280;54998;42.656;23.382;2022-12-20T07:34:56;96560.75;;;3.56;42.82
68179;BME280;54998;42.656;23.382;2022-12-20T07:37:22;96570.09;;;3.06;44.03
68179;BME280;54998;42.656;23.382;2022-12-20T07:39:47;96571.56;;;2.07;46.30
68179;BME280;54998;42.656;23.382;2022-12-20T07:42:13;96577.06;;;2.48;45.44
68179;BME280;54998;42.656;23.382;2022-12-20T07:44:38;96571.75;;;2.01;46.20
68179;BME280;54998;42.656;23.382;2022-12-20T07:47:03;96563.63;;;2.98;44.69
68179;BME280;54998;42.656;23.382;2022-12-20T07:49:29;96561.84;;;4.81;41.59
68179;BME280;54998;42.656;23.382;2022-12-20T07:51:57;96563.84;;;4.94;40.25
68179;BME280;54998;42.656;23.382;2022-12-20T07:54:27;96560.25;;;4.99;40.66
68179;BME280;54998;42.656;23.382;2022-12-20T07:56:58;96557.91;;;4.73;41.01
68179;BME280;54998;42.656;23.382;2022-12-20T07:59:28;96551.09;;;7.82;35.91
68179;BME280;54998;42.656;23.382;2022-12-20T08:01:56;96556.59;;;6.92;36.44
68179;BME280;54998;42.656;23.382;2022-12-20T08:04:24;96547.19;;;6.04;37.49
68179;BME280;54998;42.656;23.382;2022-12-20T08:06:52;96546.34;;;6.23;37.03
68179;BME280;54998;42.656;23.382;2022-12-20T08:09:20;96544.75;;;5.82;38.43
68179;BME280;54998;42.656;23.382;2022-12-20T08:11:47;96546.09;;;6.10;37.02
68179;BME280;54998;42.656;23.382;2022-12-20T08:14:16;96541.81;;;6.82;36.56
68179;BME280;54998;42.656;23.382;2022-12-20T08:16:42;96546.22;;;5.10;38.27
68179;BME280;54998;42.656;23.382;2022-12-20T08:19:08;96539.44;;;5.09;39.67
68179;BME280;54998;42.656;23.382;2022-12-20T08:21:34;96538.91;;;6.18;37.38
68179;BME280;54998;42.656;23.382;2022-12-20T08:23:59;96531.88;;;5.47;39.25
68179;BME280;54998;42.656;23.382;2022-12-20T08:26:25;96537.72;;;6.25;37.64
68179;BME280;54998;42.656;23.382;2022-12-20T08:28:52;96534.81;;;6.50;36.86
68179;BME280;54998;42.656;23.382;2022-12-20T08:31:18;96536.66;;;4.74;39.00
68179;BME280;54998;42.656;23.382;2022-12-20T08:33:43;96529.66;;;5.00;39.64
68179;BME280;54998;42.656;23.382;2022-12-20T08:36:10;96531.41;;;5.58;39.20
68179;BME280;54998;42.656;23.382;2022-12-20T08:38:36;96531.97;;;5.65;38.05
68179;BME280;54998;42.656;23.382;2022-12-20T08:43:29;96521.06;;;7.05;36.24
68179;BME280;54998;42.656;23.382;2022-12-20T08:45:54;96524.75;;;7.33;34.58
68179;BME280;54998;42.656;23.382;2022-12-20T08:48:21;96510.72;;;7.24;34.96
68179;BME280;54998;42.656;23.382;2022-12-20T08:50:47;96517.88;;;7.51;35.06
68179;BME280;54998;42.656;23.382;2022-12-20T08:53:17;96522.31;;;8.11;33.35
68179;BME280;54998;42.656;23.382;2022-12-20T08:55:43;96522.59;;;7.25;33.10
68179;BME280;54998;42.656;23.382;2022-12-20T08:58:08;96521.25;;;6.13;35.75
68179;BME280;54998;42.656;23.382;2022-12-20T09:00:35;96508.94;;;8.98;32.45
68179;BME280;54998;42.656;23.382;2022-12-20T09:03:00;96504.41;;;8.11;33.16
68179;BME280;54998;42.656;23.382;2022-12-20T09:05:25;96510.03;;;7.54;33.42
68179;BME280;54998;42.656;23.382;2022-12-20T09:07:51;96497.41;;;9.48;31.08
68179;BME280;54998;42.656;23.382;2022-12-20T09:10:16;96493.19;;;9.61;31.22
68179;BME280;54998;42.656;23.382;2022-12-20T09:12:42;96492.38;;;9.88;29.75
68179;BME280;54998;42.656;23.382;2022-12-20T09:15:08;96491.72;;;6.96;33.60
68179;BME280;54998;42.656;23.382;2022-12-20T09:17:33;96485.75;;;6.80;33.97
68179;BME280;54998;42.656;23.382;2022-12-20T09:19:58;96491.28;;;6.88;33.20
68179;BME280;54998;42.656;23.382;2022-12-20T09:22:24;96494.91;;;5.76;35.09
68179;BME280;54998;42.656;23.382;2022-12-20T09:24:49;96478.41;;;6.22;35.10
68179;BME280;54998;42.656;23.382;2022-12-20T09:27:15;96464.28;;;7.65;32.63
68179;BME280;54998;42.656;23.382;2022-12-20T09:29:40;96468.78;;;8.98;30.05
68179;BME280;54998;42.656;23.382;2022-12-20T09:32:05;96467.53;;;8.15;31.38
68179;BME280;54998;42.656;23.382;2022-12-20T09:34:31;96453.19;;;9.30;29.34
68179;BME280;54998;42.656;23.382;2022-12-20T09:36:57;96461.59;;;9.61;29.60
68179;BME280;54998;42.656;23.382;2022-12-20T09:39:22;96465.16;;;8.12;30.59
68179;BME280;54998;42.656;23.382;2022-12-20T09:41:47;96461.06;;;6.63;33.54
68179;BME280;54998;42.656;23.382;2022-12-20T09:44:25;96452.19;;;8.15;31.40
68179;BME280;54998;42.656;23.382;2022-12-20T09:46:59;96450.38;;;8.17;31.11
68179;BME280;54998;42.656;23.382;2022-12-20T09:49:29;96448.88;;;10.14;27.94
68179;BME280;54998;42.656;23.382;2022-12-20T09:52:28;96442.16;;;9.01;28.90
68179;BME280;54998;42.656;23.382;2022-12-20T10:00:18;96431.88;;;9.44;28.99
68179;BME280;54998;42.656;23.382;2022-12-20T10:02:44;96425.06;;;8.87;28.99
68179;BME280;54998;42.656;23.382;2022-12-20T10:05:27;96421.75;;;9.70;28.75
68179;BME280;54998;42.656;23.382;2022-12-20T10:13:59;96408.25;;;10.47;27.01
68179;BME280;54998;42.656;23.382;2022-12-20T10:16:44;96394.09;;;7.72;31.14
68179;BME280;54998;42.656;23.382;2022-12-20T10:25:11;96370.09;;;8.05;29.63
68179;BME280;54998;42.656;23.382;2022-12-20T10:27:42;96364.44;;;7.38;31.21
68179;BME280;54998;42.656;23.382;2022-12-20T10:30:19;96364.34;;;8.46;29.87
68179;BME280;54998;42.656;23.382;2022-12-20T10:32:48;96345.38;;;8.34;30.09
68179;BME280;54998;42.656;23.382;2022-12-20T10:38:03;96340.22;;;7.13;31.58
68179;BME280;54998;42.656;23.382;2022-12-20T10:43:05;96320.09;;;6.26;33.22
68179;BME280;54998;42.656;23.382;2022-12-20T10:45:36;96330.25;;;5.39;33.44
68179;BME280;54998;42.656;23.382;2022-12-20T10:48:26;96321.66;;;4.86;35.32
68179;BME280;54998;42.656;23.382;2022-12-20T10:51:12;96319.97;;;5.23;35.17
68179;BME280;54998;42.656;23.382;2022-12-20T10:53:53;96310.09;;;5.17;35.69
68179;BME280;54998;42.656;23.382;2022-12-20T10:56:24;96300.78;;;5.87;34.24
68179;BME280;54998;42.656;23.382;2022-12-20T11:01:43;96311.06;;;5.14;34.80
68179;BME280;54998;42.656;23.382;2022-12-20T11:06:46;96305.34;;;5.09;35.56
68179;BME280;54998;42.656;23.382;2022-12-20T11:09:24;96297.19;;;4.84;35.76
68179;BME280;54998;42.656;23.382;2022-12-20T11:12:08;96293.56;;;4.51;36.80
68179;BME280;54998;42.656;23.382;2022-12-20T11:14:36;96292.31;;;4.41;37.48
68179;BME280;54998;42.656;23.382;2022-12-20T11:22:24;96281.28;;;5.34;36.89
68179;BME280;54998;42.656;23.382;2022-12-20T11:30:41;96262.31;;;5.22;36.69
68179;BME280;54998;42.656;23.382;2022-12-20T11:36:20;96261.50;;;6.09;34.85
68179;BME280;54998;42.656;23.382;2022-12-20T11:41:46;96245.28;;;6.59;33.16
68179;BME280;54998;42.656;23.382;2022-12-20T11:49:57;96244.91;;;5.67;35.49
68179;BME280;54998;42.656;23.382;2022-12-20T11:52:51;96234.28;;;5.92;35.44
68179;BME280;54998;42.656;23.382;2022-12-20T11:55:26;96229.66;;;6.97;33.56
68179;BME280;54998;42.656;23.382;2022-12-20T12:00:26;96228.91;;;6.95;32.01
68179;BME280;54998;42.656;23.382;2022-12-20T12:33:27;96213.47;;;3.43;36.81
68179;BME280;54998;42.656;23.382;2022-12-20T12:36:41;96208.97;;;3.50;37.45
68179;BME280;54998;42.656;23.382;2022-12-20T12:41:55;96213.25;;;3.68;35.96
68179;BME280;54998;42.656;23.382;2022-12-20T12:44:32;96210.03;;;3.44;35.81
68179;BME280;54998;42.656;23.382;2022-12-20T12:47:05;96211.63;;;3.26;36.11
68179;BME280;54998;42.656;23.382;2022-12-20T12:49:36;96213.53;;;3.21;36.61
68179;BME280;54998;42.656;23.382;2022-12-20T12:52:04;96203.06;;;3.08;36.60
68179;BME280;54998;42.656;23.382;2022-12-20T12:54:36;96215.38;;;3.18;36.79
68179;BME280;54998;42.656;23.382;2022-12-20T12:57:16;96207.75;;;3.18;36.31
68179;BME280;54998;42.656;23.382;2022-12-20T12:59:46;96202.97;;;3.10;36.16
68179;BME280;54998;42.656;23.382;2022-12-20T13:12:52;96201.16;;;3.14;35.90
68179;BME280;54998;42.656;23.382;2022-12-20T13:17:59;96196.50;;;2.60;37.05
68179;BME280;54998;42.656;23.382;2022-12-20T13:20:30;96182.47;;;2.74;37.33
68179;BME280;54998;42.656;23.382;2022-12-20T13:25:48;96183.22;;;2.76;37.24
68179;BME280;54998;42.656;23.382;2022-12-20T13:30:43;96196.53;;;2.81;36.94
68179;BME280;54998;42.656;23.382;2022-12-20T13:33:45;96182.75;;;2.66;37.39
68179;BME280;54998;42.656;23.382;2022-12-20T13:41:40;96184.81;;;2.78;37.87
68179;BME280;54998;42.656;23.382;2022-12-20T13:47:14;96184.44;;;2.87;37.91
68179;BME280;54998;42.656;23.382;2022-12-20T13:49:44;96185.75;;;2.76;38.47
68179;BME280;54998;42.656;23.382;2022-12-20T13:54:43;96181.63;;;2.51;37.70
68179;BME280;54998;42.656;23.382;2022-12-20T13:57:19;96176.25;;;2.37;37.94
68179;BME280;54998;42.656;23.382;2022-12-20T13:59:48;96177.13;;;2.36;38.03
68179;BME280;54998;42.656;23.382;2022-12-20T14:02:28;96177.50;;;2.49;37.83
68179;BME280;54998;42.656;23.382;2022-12-20T14:05:11;96173.25;;;2.49;37.46
68179;BME280;54998;42.656;23.382;2022-12-20T14:07:37;96176.19;;;2.38;37.67
68179;BME280;54998;42.656;23.382;2022-12-20T14:10:16;96169.16;;;2.23;38.32
68179;BME280;54998;42.656;23.382;2022-12-20T14:12:44;96162.09;;;2.09;38.85
68179;BME280;54998;42.656;23.382;2022-12-20T14:17:47;96154.53;;;1.84;39.89
68179;BME280;54998;42.656;23.382;2022-12-20T14:20:21;96156.94;;;1.65;40.58
68179;BME280;54998;42.656;23.382;2022-12-20T14:22:52;96162.28;;;1.56;41.02
68179;BME280;54998;42.656;23.382;2022-12-20T14:25:35;96162.00;;;1.65;41.33
68179;BME280;54998;42.656;23.382;2022-12-20T14:28:02;96163.19;;;1.55;41.65
68179;BME280;54998;42.656;23.382;2022-12-20T14:30:34;96157.50;;;1.48;41.82
68179;BME280;54998;42.656;23.382;2022-12-20T14:33:01;96156.28;;;1.35;42.66
68179;BME280;54998;42.656;23.382;2022-12-20T14:35:26;96152.28;;;1.28;42.86
68179;BME280;54998;42.656;23.382;2022-12-20T14:37:55;96159.72;;;1.32;42.25
68179;BME280;54998;42.656;23.382;2022-12-20T14:40:21;96156.91;;;1.41;41.98
68179;BME280;54998;42.656;23.382;2022-12-20T14:42:46;96147.03;;;1.34;42.08
68179;BME280;54998;42.656;23.382;2022-12-20T14:48:11;96151.59;;;1.24;42.80
68179;BME280;54998;42.656;23.382;2022-12-20T14:50:35;96156.88;;;1.16;43.53
68179;BME280;54998;42.656;23.382;2022-12-20T14:53:02;96147.91;;;1.08;44.34
68179;BME280;54998;42.656;23.382;2022-12-20T14:55:36;96140.59;;;1.00;44.45
68179;BME280;54998;42.656;23.382;2022-12-20T15:01:02;96146.84;;;0.88;44.90
68179;BME280;54998;42.656;23.382;2022-12-20T15:03:28;96132.63;;;0.86;44.78
68179;BME280;54998;42.656;23.382;2022-12-20T15:05:56;96136.84;;;0.85;44.84
68179;BME280;54998;42.656;23.382;2022-12-20T15:08:27;96132.84;;;0.78;44.86
68179;BME280;54998;42.656;23.382;2022-12-20T15:11:02;96129.13;;;0.63;45.58
68179;BME280;54998;42.656;23.382;2022-12-20T15:13:39;96125.28;;;0.51;46.42
68179;BME280;54998;42.656;23.382;2022-12-20T15:18:39;96130.47;;;0.47;47.29
68179;BME280;54998;42.656;23.382;2022-12-20T15:21:05;96134.84;;;0.42;47.51
68179;BME280;54998;42.656;23.382;2022-12-20T15:23:35;96138.28;;;0.39;47.91
68179;BME280;54998;42.656;23.382;2022-12-20T15:26:00;96138.56;;;0.30;48.49
68179;BME280;54998;42.656;23.382;2022-12-20T15:28:27;96139.50;;;0.27;49.34
68179;BME280;54998;42.656;23.382;2022-12-20T15:30:53;96146.25;;;0.27;49.57
68179;BME280;54998;42.656;23.382;2022-12-20T15:33:22;96147.09;;;0.26;49.83
68179;BME280;54998;42.656;23.382;2022-12-20T15:35:48;96144.22;;;0.10;50.93
68179;BME280;54998;42.656;23.382;2022-12-20T15:38:21;96132.50;;;0.07;50.97